Aviation Digital Data Service (ADDS)

Output produced by METARs form (1605 UTC 20 September 2018)
found at http://aviationweather.gov/metar/data/
 
KCWA 201135Z 2012/2112 09007KT 6SM SHRA BR OVC004 
     FM202100 12011G16KT 5SM TSRA OVC006CB 
     FM210200 19013G21KT 5SM SHRA OVC018 WS020/21050KT 
     FM210600 24015G27KT P6SM -SHRA OVC020 WS020/23045KT
       
KATW 201434Z 2015/2112 04010KT 3SM SHRA BR OVC004 
     TEMPO 2015/2017 1SM -SHRA BR BKN002 
     FM201700 07008KT 6SM SHRA BR OVC006 
     FM202300 14010KT 5SM HZ BKN020 
     FM210100 18014G21KT P6SM VCTS BKN080CB WS020/20045KT 
     FM210400 21017G25KT 5SM TSRA BKN035CB WS020/22055KT 
     FM210800 24015G24KT P6SM -SHRA BKN035 WS020/26045KT
       
KGRB 201135Z 2012/2112 04010KT 6SM SHRA BR OVC006 
     FM201700 07008KT P6SM SHRA OVC007 
     FM202300 14010KT 6SM HZ BKN020 
     FM210100 18014G21KT P6SM VCTS BKN080CB WS020/20045KT 
     FM210400 21017G25KT 5SM TSRA BKN035CB WS020/22055KT 
     FM210800 24015G24KT P6SM -SHRA BKN035 WS020/26045KT
       
KMSN 201442Z 2015/2112 VRB04KT 6SM BR VCSH BKN005 
     FM201600 13008KT P6SM FEW008 BKN025 BKN035 
     FM201900 17011G20KT P6SM SCT080 
     FM210000 18013KT P6SM FEW250 WS020/21040KT 
     FM210500 21016G25KT P6SM VCSH BKN110 WS020/22050KT 
     FM211100 25014G24KT P6SM BKN035
       
KMKE 201530Z 2016/2118 12010KT P6SM BKN005 
     FM201700 13007KT P6SM SCT025 BKN050 
     FM201900 16011KT P6SM SCT080 
     FM210200 19013G21KT P6SM FEW250 WS020/21045KT 
     FM210600 21016G26KT P6SM VCSH SCT110 WS020/22050KT 
     FM211100 25015G24KT P6SM BKN035